createdAt,value
2022-08-29T00:00:18.163Z,1.57
2022-08-29T00:02:47.665Z,1.60
2022-08-29T00:05:16.389Z,1.77
2022-08-29T00:07:46.426Z,1.43
2022-08-29T00:10:15.478Z,1.70
2022-08-29T00:12:44.358Z,1.50
2022-08-29T00:15:13.926Z,1.33
2022-08-29T00:17:42.704Z,1.80
2022-08-29T00:20:13.618Z,1.53
2022-08-29T00:22:42.273Z,1.40
2022-08-29T00:25:13.034Z,1.50
2022-08-29T00:27:41.928Z,1.33
2022-08-29T00:30:16.382Z,1.33
2022-08-29T00:32:45.023Z,1.50
2022-08-29T00:35:14.917Z,1.90
2022-08-29T00:37:44.200Z,1.90
2022-08-29T00:40:16.231Z,1.80
2022-08-29T00:42:45.208Z,1.73
2022-08-29T00:45:14.760Z,1.67
2022-08-29T00:47:47.269Z,1.60
2022-08-29T00:50:25.845Z,1.50
2022-08-29T00:52:56.034Z,1.50
2022-08-29T00:55:27.526Z,1.50
2022-08-29T00:57:58.109Z,1.63
2022-08-29T01:00:27.047Z,1.43
2022-08-29T01:02:55.924Z,1.50
2022-08-29T01:05:25.563Z,1.50
2022-08-29T01:07:54.227Z,1.83
2022-08-29T01:10:40.969Z,1.43
2022-08-29T01:13:11.882Z,1.63
2022-08-29T01:15:41.972Z,1.50
2022-08-29T01:18:11.357Z,1.50
2022-08-29T01:20:42.452Z,1.23
2022-08-29T01:23:15.473Z,1.60
2022-08-29T01:25:48.144Z,1.40
2022-08-29T01:28:18.972Z,1.60
2022-08-29T01:31:00.340Z,1.40
2022-08-29T01:33:31.549Z,1.50
2022-08-29T01:36:00.189Z,1.40
2022-08-29T01:38:28.835Z,1.40
2022-08-29T01:40:59.645Z,1.50
2022-08-29T01:43:29.169Z,1.70
2022-08-29T01:45:58.495Z,2.13
2022-08-29T01:48:27.405Z,2.13
2022-08-29T01:50:56.197Z,1.57
2022-08-29T01:53:24.824Z,1.60
2022-08-29T01:55:53.426Z,1.80
2022-08-29T01:58:23.409Z,1.33
2022-08-29T02:00:52.136Z,1.60
2022-08-29T02:03:20.762Z,1.77
2022-08-29T02:05:49.441Z,1.37
2022-08-29T02:08:20.047Z,1.50
2022-08-29T02:10:49.008Z,1.80
2022-08-29T02:13:17.605Z,1.43
2022-08-29T02:15:47.552Z,1.40
2022-08-29T02:18:16.525Z,1.60
2022-08-29T02:20:45.401Z,1.60
2022-08-29T02:23:30.107Z,1.53
2022-08-29T02:25:59.672Z,1.43
2022-08-29T02:28:28.333Z,1.40
2022-08-29T02:30:58.439Z,1.43
2022-08-29T02:33:28.929Z,1.60
2022-08-29T02:35:57.792Z,1.70
2022-08-29T02:38:26.839Z,1.50
2022-08-29T02:40:55.748Z,1.37
2022-08-29T02:43:25.489Z,2.00
2022-08-29T02:45:54.540Z,1.70
2022-08-29T02:48:24.762Z,1.57
2022-08-29T02:50:54.593Z,2.00
2022-08-29T02:53:24.312Z,1.67
2022-08-29T02:55:53.300Z,1.60
2022-08-29T02:58:22.638Z,2.00
2022-08-29T03:00:51.352Z,1.50
2022-08-29T03:03:20.341Z,1.50
2022-08-29T03:05:50.807Z,1.60
2022-08-29T03:08:19.709Z,1.83
2022-08-29T03:10:48.552Z,1.70
2022-08-29T03:13:18.877Z,1.80
2022-08-29T03:15:48.084Z,1.57
2022-08-29T03:18:16.887Z,1.67
2022-08-29T03:20:45.536Z,1.63
2022-08-29T03:23:17.155Z,1.80
2022-08-29T03:25:45.768Z,1.70
2022-08-29T03:28:14.545Z,1.60
2022-08-29T03:30:43.227Z,1.70
2022-08-29T03:33:12.243Z,1.40
2022-08-29T03:35:41.080Z,1.73
2022-08-29T03:38:09.719Z,1.57
2022-08-29T03:40:41.585Z,1.50
2022-08-29T03:43:10.452Z,1.50
2022-08-29T03:45:39.065Z,1.70
2022-08-29T03:48:07.711Z,1.47
2022-08-29T03:50:36.358Z,1.50
2022-08-29T03:53:05.135Z,1.40
2022-08-29T03:55:33.727Z,1.30
2022-08-29T03:58:03.692Z,1.83
2022-08-29T04:00:32.447Z,1.60
2022-08-29T04:03:01.177Z,1.70
2022-08-29T04:05:29.912Z,1.67
2022-08-29T04:07:59.549Z,1.90
2022-08-29T04:10:29.196Z,1.90
2022-08-29T04:12:57.836Z,1.80
2022-08-29T04:15:29.007Z,1.70
2022-08-29T04:18:01.719Z,1.80
2022-08-29T04:20:31.884Z,1.60
2022-08-29T04:23:01.092Z,1.90
2022-08-29T04:25:37.174Z,1.60
2022-08-29T04:28:06.884Z,1.73
2022-08-29T04:30:37.378Z,1.60
2022-08-29T04:33:06.021Z,1.73
2022-08-29T04:35:35.547Z,1.67
2022-08-29T04:38:04.142Z,1.80
2022-08-29T04:40:34.176Z,2.00
2022-08-29T04:43:02.857Z,1.70
2022-08-29T04:45:33.273Z,1.80
2022-08-29T04:48:03.863Z,1.73
2022-08-29T04:50:32.536Z,1.87
2022-08-29T04:53:01.170Z,1.80
2022-08-29T04:55:31.162Z,1.87
2022-08-29T04:57:59.853Z,1.77
2022-08-29T05:00:30.751Z,2.07
2022-08-29T05:02:59.635Z,1.80
2022-08-29T05:05:29.653Z,1.80
2022-08-29T05:07:58.229Z,1.80
2022-08-29T05:10:26.857Z,1.70
2022-08-29T05:12:55.490Z,2.00
2022-08-29T05:15:24.085Z,1.73
2022-08-29T05:17:54.064Z,1.73
2022-08-29T05:20:22.861Z,1.80
2022-08-29T05:22:52.810Z,2.00
2022-08-29T05:25:21.589Z,1.83
2022-08-29T05:27:50.263Z,1.87
2022-08-29T05:30:34.229Z,2.10
2022-08-29T05:33:04.397Z,1.97
2022-08-29T05:35:33.154Z,1.70
2022-08-29T05:38:08.608Z,2.03
2022-08-29T05:40:39.329Z,1.67
2022-08-29T05:43:08.065Z,1.80
2022-08-29T05:45:37.516Z,1.70
2022-08-29T05:48:07.714Z,1.50
2022-08-29T05:50:39.181Z,1.57
2022-08-29T05:53:09.555Z,1.90
2022-08-29T05:55:41.428Z,1.83
2022-08-29T05:58:10.274Z,1.60
2022-08-29T06:00:39.613Z,1.90
2022-08-29T06:03:09.738Z,2.00
2022-08-29T06:05:38.685Z,2.30
2022-08-29T06:08:09.218Z,2.20
2022-08-29T06:10:41.932Z,2.37
2022-08-29T06:13:10.552Z,1.77
2022-08-29T06:15:39.229Z,1.97
2022-08-29T06:18:08.031Z,1.73
2022-08-29T06:20:38.579Z,1.93
2022-08-29T06:23:08.650Z,2.20
2022-08-29T06:25:40.059Z,2.40
2022-08-29T06:28:09.157Z,2.00
2022-08-29T06:30:37.920Z,2.10
2022-08-29T06:33:06.586Z,1.97
2022-08-29T06:35:35.237Z,2.20
2022-08-29T06:38:03.810Z,3.07
2022-08-29T06:40:33.826Z,2.20
2022-08-29T06:43:02.467Z,2.00
2022-08-29T06:45:31.120Z,2.30
2022-08-29T06:47:59.721Z,2.30
2022-08-29T06:50:28.396Z,2.23
2022-08-29T06:53:05.423Z,2.23
2022-08-29T06:55:46.922Z,1.83
2022-08-29T06:58:15.924Z,2.47
2022-08-29T07:00:49.051Z,2.20
2022-08-29T07:03:19.151Z,2.23
2022-08-29T07:05:52.562Z,2.37
2022-08-29T07:08:23.666Z,2.30
2022-08-29T07:10:53.683Z,2.50
2022-08-29T07:13:22.328Z,3.37
2022-08-29T07:15:51.988Z,2.60
2022-08-29T07:18:20.928Z,2.50
2022-08-29T07:20:49.621Z,2.50
2022-08-29T07:23:18.225Z,2.40
2022-08-29T07:25:46.823Z,2.10
2022-08-29T07:28:16.926Z,2.10
2022-08-29T07:30:45.782Z,2.50
2022-08-29T07:33:14.607Z,2.40
2022-08-29T07:35:43.357Z,2.30
2022-08-29T07:38:12.070Z,2.43
2022-08-29T07:40:40.842Z,1.97
2022-08-29T07:43:09.561Z,2.20
2022-08-29T07:45:41.452Z,2.30
2022-08-29T07:48:10.332Z,2.50
2022-08-29T07:50:39.057Z,2.50
2022-08-29T07:53:08.060Z,2.20
2022-08-29T07:55:38.260Z,2.40
2022-08-29T07:58:06.855Z,2.80
2022-08-29T08:00:35.460Z,2.53
2022-08-29T08:03:05.639Z,2.30
2022-08-29T08:05:34.292Z,2.30
2022-08-29T08:08:08.843Z,2.60
2022-08-29T08:10:43.492Z,2.47
2022-08-29T08:13:12.140Z,2.50
2022-08-29T08:15:41.305Z,2.57
2022-08-29T08:18:11.319Z,2.50
2022-08-29T08:20:40.031Z,2.67
2022-08-29T08:23:08.986Z,2.53
2022-08-29T08:25:43.293Z,3.00
2022-08-29T08:28:12.075Z,3.30
2022-08-29T08:30:40.828Z,3.10
2022-08-29T08:33:10.969Z,3.03
2022-08-29T08:35:41.967Z,3.20
2022-08-29T08:38:11.133Z,3.03
2022-08-29T08:40:41.904Z,3.10
2022-08-29T08:43:11.871Z,3.03
2022-08-29T08:45:42.546Z,3.53
2022-08-29T08:48:15.560Z,2.90
2022-08-29T08:50:47.085Z,2.87
2022-08-29T08:53:20.237Z,2.70
2022-08-29T08:55:50.290Z,3.50
2022-08-29T08:58:29.333Z,3.30
2022-08-29T09:01:00.531Z,3.10
2022-08-29T09:03:48.643Z,2.83
2022-08-29T09:06:26.631Z,3.00
2022-08-29T09:08:59.596Z,3.03
2022-08-29T09:11:31.182Z,2.60
2022-08-29T09:14:04.871Z,2.83
2022-08-29T09:16:37.657Z,2.40
2022-08-29T09:19:08.189Z,2.40
2022-08-29T09:21:41.480Z,2.23
2022-08-29T09:24:13.928Z,2.47
2022-08-29T09:26:42.504Z,2.63
2022-08-29T09:29:13.828Z,2.27
2022-08-29T09:31:43.406Z,2.90
2022-08-29T09:34:15.399Z,2.60
2022-08-29T09:36:47.714Z,2.67
2022-08-29T09:39:24.625Z,2.67
2022-08-29T09:41:54.621Z,2.20
2022-08-29T09:44:25.872Z,2.47
2022-08-29T09:47:11.278Z,2.10
2022-08-29T09:49:40.706Z,2.40
2022-08-29T09:52:12.088Z,3.13
2022-08-29T09:54:41.328Z,2.33
2022-08-29T09:57:13.263Z,2.20
2022-08-29T09:59:45.186Z,2.13
2022-08-29T10:02:20.693Z,2.13
2022-08-29T10:04:52.466Z,2.07
2022-08-29T10:07:23.426Z,1.60
2022-08-29T10:09:57.574Z,2.20
2022-08-29T10:12:30.473Z,2.70
2022-08-29T10:15:02.394Z,2.33
2022-08-29T10:17:56.250Z,2.53
2022-08-29T10:20:28.405Z,2.13
2022-08-29T10:23:01.455Z,2.57
2022-08-29T10:25:35.099Z,1.97
2022-08-29T10:28:07.004Z,2.30
2022-08-29T10:30:38.454Z,2.00
2022-08-29T10:33:16.776Z,2.10
2022-08-29T10:35:54.356Z,2.03
2022-08-29T10:38:38.960Z,2.20
2022-08-29T10:41:12.216Z,2.30
2022-08-29T10:43:41.910Z,1.80
2022-08-29T10:46:24.399Z,2.33
2022-08-29T10:48:59.849Z,2.13
2022-08-29T10:51:33.167Z,1.60
2022-08-29T10:54:06.482Z,1.93
2022-08-29T10:56:38.528Z,2.33
2022-08-29T10:59:12.193Z,2.50
2022-08-29T11:01:43.303Z,2.10
2022-08-29T11:04:18.209Z,1.83
2022-08-29T11:06:50.432Z,2.47
2022-08-29T11:09:24.114Z,1.90
2022-08-29T11:12:00.264Z,2.20
2022-08-29T11:14:31.837Z,2.17
2022-08-29T11:17:03.249Z,2.20
2022-08-29T11:19:33.502Z,2.23
2022-08-29T11:22:04.368Z,2.00
2022-08-29T11:24:37.995Z,2.10
2022-08-29T11:27:10.240Z,2.23
2022-08-29T11:29:41.887Z,2.20
2022-08-29T11:32:14.955Z,1.60
2022-08-29T11:34:48.668Z,2.33
2022-08-29T11:37:39.815Z,2.07
2022-08-29T11:40:16.772Z,2.40
2022-08-29T11:42:50.295Z,2.20
2022-08-29T11:45:24.748Z,2.43
2022-08-29T11:48:00.031Z,2.50
2022-08-29T11:50:31.149Z,2.07
2022-08-29T11:53:08.596Z,2.47
2022-08-29T11:55:44.050Z,2.03
2022-08-29T11:58:32.767Z,2.10
2022-08-29T12:01:01.446Z,2.00
2022-08-29T12:03:51.001Z,2.27
2022-08-29T12:06:38.860Z,2.17
2022-08-29T12:09:13.684Z,2.37
2022-08-29T12:12:01.310Z,2.40
2022-08-29T12:14:37.321Z,2.20
2022-08-29T12:17:08.033Z,1.87
2022-08-29T12:19:53.190Z,1.80
2022-08-29T12:25:31.053Z,2.40
2022-08-29T12:28:01.929Z,2.90
2022-08-29T12:30:34.605Z,2.30
2022-08-29T12:33:08.523Z,2.20
2022-08-29T12:35:54.971Z,2.20
2022-08-29T12:38:32.545Z,1.77
2022-08-29T12:41:07.053Z,2.50
2022-08-29T12:43:42.473Z,2.13
2022-08-29T12:46:16.452Z,1.90
2022-08-29T12:48:57.159Z,2.00
2022-08-29T12:51:33.929Z,2.20
2022-08-29T12:54:02.521Z,2.13
2022-08-29T12:56:31.186Z,1.83
2022-08-29T12:59:01.044Z,2.53
2022-08-29T13:01:32.176Z,2.43
2022-08-29T13:04:02.437Z,2.10
2022-08-29T13:06:31.538Z,1.90
2022-08-29T13:09:00.525Z,2.00
2022-08-29T13:11:30.310Z,2.30
2022-08-29T13:14:06.441Z,2.27
2022-08-29T13:16:36.673Z,2.00
2022-08-29T13:19:11.445Z,2.00
2022-08-29T13:21:40.420Z,2.20
2022-08-29T13:24:13.388Z,1.93
2022-08-29T13:26:50.532Z,1.93
2022-08-29T13:29:36.417Z,2.20
2022-08-29T13:32:19.160Z,2.30
2022-08-29T13:35:09.079Z,2.43
2022-08-29T13:37:38.690Z,3.07
2022-08-29T13:40:25.957Z,2.00
2022-08-29T13:42:54.567Z,1.93
2022-08-29T13:45:24.358Z,1.90
2022-08-29T13:47:59.505Z,2.00
2022-08-29T13:50:28.434Z,2.47
2022-08-29T13:52:57.524Z,1.93
2022-08-29T13:55:26.429Z,2.07
2022-08-29T13:57:55.766Z,1.80
2022-08-29T14:00:35.180Z,1.92
2022-08-29T14:03:09.412Z,2.40
2022-08-29T14:05:38.824Z,1.80
2022-08-29T14:08:07.758Z,1.67
2022-08-29T14:10:36.472Z,1.77
2022-08-29T14:13:05.605Z,2.00
2022-08-29T14:15:34.332Z,1.87
2022-08-29T14:18:03.032Z,2.47
2022-08-29T14:20:32.984Z,2.13
2022-08-29T14:23:01.645Z,2.20
2022-08-29T14:25:30.269Z,2.03
2022-08-29T14:27:58.939Z,2.03
2022-08-29T14:30:27.553Z,2.40
2022-08-29T14:32:56.192Z,2.23
2022-08-29T14:35:26.442Z,2.00
2022-08-29T14:38:01.572Z,2.10
2022-08-29T14:40:30.783Z,2.10
2022-08-29T14:42:59.675Z,2.17
2022-08-29T14:45:28.869Z,2.30
2022-08-29T14:47:57.519Z,2.10
2022-08-29T14:50:26.224Z,2.17
2022-08-29T14:52:54.917Z,2.33
2022-08-29T14:55:24.944Z,2.10
2022-08-29T14:57:53.617Z,2.00
2022-08-29T15:00:23.644Z,2.00
2022-08-29T15:02:52.370Z,2.10
2022-08-29T15:05:21.205Z,2.30
2022-08-29T15:07:49.784Z,2.13
2022-08-29T15:10:19.449Z,2.30
2022-08-29T15:12:49.433Z,2.10
2022-08-29T15:15:18.262Z,2.20
2022-08-29T15:17:46.872Z,2.00
2022-08-29T15:20:35.526Z,2.17
2022-08-29T15:23:04.476Z,2.50
2022-08-29T15:25:33.091Z,2.07
2022-08-29T15:28:03.070Z,2.30
2022-08-29T15:30:31.731Z,2.43
2022-08-29T15:33:00.656Z,2.07
2022-08-29T15:35:29.313Z,2.40
2022-08-29T15:37:58.054Z,2.00
2022-08-29T15:40:26.995Z,2.03
2022-08-29T15:42:55.677Z,1.97
2022-08-29T15:45:25.689Z,2.40
2022-08-29T15:47:54.576Z,2.80
2022-08-29T15:50:23.820Z,2.20
2022-08-29T15:52:52.440Z,2.20
2022-08-29T15:55:21.144Z,2.40
2022-08-29T15:57:52.255Z,2.63
2022-08-29T16:00:29.741Z,2.20
2022-08-29T16:03:04.678Z,1.87
2022-08-29T16:05:33.931Z,2.13
2022-08-29T16:08:03.013Z,2.30
2022-08-29T16:10:31.786Z,1.97
2022-08-29T16:13:00.519Z,2.13
2022-08-29T16:15:30.954Z,2.00
2022-08-29T16:18:00.381Z,2.17
2022-08-29T16:20:31.010Z,1.80
2022-08-29T16:23:00.308Z,2.07
2022-08-29T16:25:29.459Z,2.10
2022-08-29T16:27:58.289Z,1.70
2022-08-29T16:30:27.100Z,2.10
2022-08-29T16:32:56.101Z,1.87
2022-08-29T16:35:25.176Z,1.93
2022-08-29T16:38:03.126Z,1.90
2022-08-29T16:40:33.114Z,1.77
2022-08-29T16:43:02.509Z,1.80
2022-08-29T16:45:31.165Z,1.90
2022-08-29T16:47:59.842Z,2.10
2022-08-29T16:50:28.889Z,2.17
2022-08-29T16:52:58.858Z,1.90
2022-08-29T16:55:28.668Z,2.47
2022-08-29T16:58:15.375Z,2.30
2022-08-29T17:00:45.090Z,1.87
2022-08-29T17:03:18.069Z,2.00
2022-08-29T17:05:49.706Z,2.10
2022-08-29T17:08:18.673Z,2.00
2022-08-29T17:10:46.229Z,2.00
2022-08-29T17:13:13.787Z,1.73
2022-08-29T17:15:41.707Z,1.73
2022-08-29T17:18:10.509Z,2.17
2022-08-29T17:20:41.169Z,1.90
2022-08-29T17:23:10.092Z,1.90
2022-08-29T17:25:42.048Z,1.77
2022-08-29T17:28:18.886Z,1.97
2022-08-29T17:30:48.840Z,1.80
2022-08-29T17:33:17.888Z,1.87
2022-08-29T17:35:46.559Z,1.97
2022-08-29T17:38:15.965Z,2.23
2022-08-29T17:40:46.218Z,1.90
2022-08-29T17:43:18.227Z,1.90
2022-08-29T17:45:47.069Z,1.67
2022-08-29T17:48:15.835Z,1.80
2022-08-29T17:50:44.643Z,1.80
2022-08-29T17:53:13.230Z,1.83
2022-08-29T17:55:42.200Z,2.27
2022-08-29T17:58:12.361Z,2.20
2022-08-29T18:00:41.488Z,2.43
2022-08-29T18:03:10.303Z,2.30
2022-08-29T18:05:38.917Z,2.10
2022-08-29T18:08:07.721Z,1.70
2022-08-29T18:10:37.206Z,2.30
2022-08-29T18:13:05.915Z,2.00
2022-08-29T18:15:35.884Z,2.30
2022-08-29T18:18:05.549Z,1.97
2022-08-29T18:20:35.317Z,1.90
2022-08-29T18:23:04.401Z,2.13
2022-08-29T18:25:33.043Z,1.90
2022-08-29T18:28:01.672Z,1.77
2022-08-29T18:30:30.340Z,2.20
2022-08-29T18:33:00.402Z,2.20
2022-08-29T18:35:29.442Z,2.13
2022-08-29T18:37:58.051Z,2.10
2022-08-29T18:40:26.835Z,1.90
2022-08-29T18:42:55.473Z,2.07
2022-08-29T18:45:24.243Z,2.20
2022-08-29T18:47:52.865Z,2.00
2022-08-29T18:50:38.013Z,1.90
2022-08-29T18:53:08.054Z,2.00
2022-08-29T18:55:36.665Z,2.20
2022-08-29T18:58:05.365Z,2.40
2022-08-29T19:00:34.028Z,2.53
2022-08-29T19:03:03.403Z,2.40
2022-08-29T19:05:34.795Z,2.57
2022-08-29T19:08:03.774Z,2.13
2022-08-29T19:10:32.669Z,2.40
2022-08-29T19:13:01.638Z,2.57
2022-08-29T19:15:31.127Z,2.30
2022-08-29T19:17:59.846Z,2.30
2022-08-29T19:20:46.240Z,2.53
2022-08-29T19:23:16.934Z,2.40
2022-08-29T19:25:45.834Z,2.47
2022-08-29T19:28:15.259Z,2.27
2022-08-29T19:30:44.282Z,2.10
2022-08-29T19:33:15.100Z,2.20
2022-08-29T19:35:43.864Z,2.10
2022-08-29T19:38:12.788Z,1.83
2022-08-29T19:40:42.793Z,2.17
2022-08-29T19:43:14.062Z,2.20
2022-08-29T19:45:44.167Z,2.53
2022-08-29T19:48:15.071Z,2.33
2022-08-29T19:50:47.517Z,2.47
2022-08-29T19:53:26.792Z,2.40
2022-08-29T19:55:57.737Z,2.20
2022-08-29T19:58:31.353Z,2.23
2022-08-29T20:01:01.526Z,2.20
2022-08-29T20:03:30.327Z,2.00
2022-08-29T20:05:59.500Z,2.20
2022-08-29T20:08:29.187Z,2.10
2022-08-29T20:11:01.336Z,2.23
2022-08-29T20:13:35.409Z,2.00
2022-08-29T20:16:04.644Z,1.77
2022-08-29T20:18:33.517Z,1.90
2022-08-29T20:21:02.140Z,2.00
2022-08-29T20:23:31.588Z,1.80
2022-08-29T20:26:02.441Z,2.53
2022-08-29T20:28:31.409Z,1.60
2022-08-29T20:31:00.641Z,2.40
2022-08-29T20:33:29.480Z,2.50
2022-08-29T20:36:15.958Z,2.00
2022-08-29T20:38:44.888Z,1.93
2022-08-29T20:41:15.685Z,1.90
2022-08-29T20:43:49.971Z,2.00
2022-08-29T20:46:18.658Z,2.13
2022-08-29T20:48:47.254Z,2.23
2022-08-29T20:51:15.900Z,2.07
2022-08-29T20:53:44.489Z,2.27
2022-08-29T20:56:13.097Z,2.50
2022-08-29T20:58:43.073Z,2.27
2022-08-29T21:01:11.762Z,2.10
2022-08-29T21:03:58.272Z,2.20
2022-08-29T21:06:27.261Z,2.23
2022-08-29T21:08:55.886Z,2.00
2022-08-29T21:11:24.543Z,1.70
2022-08-29T21:13:54.473Z,2.00
2022-08-29T21:16:23.227Z,2.07
2022-08-29T21:18:53.036Z,1.87
2022-08-29T21:21:24.829Z,2.00
2022-08-29T21:23:54.016Z,2.07
2022-08-29T21:26:22.636Z,2.00
2022-08-29T21:28:51.359Z,2.40
2022-08-29T21:31:23.790Z,2.40
2022-08-29T21:33:52.680Z,2.37
2022-08-29T21:36:22.608Z,2.30
2022-08-29T21:38:53.865Z,1.87
2022-08-29T21:41:23.658Z,2.20
2022-08-29T21:43:52.315Z,2.43
2022-08-29T21:46:22.234Z,2.20
2022-08-29T21:48:56.784Z,2.10
2022-08-29T21:51:26.020Z,2.33
2022-08-29T21:53:56.252Z,2.67
2022-08-29T21:56:25.892Z,1.97
2022-08-29T21:58:56.073Z,2.03
2022-08-29T22:01:26.900Z,2.00
2022-08-29T22:03:57.103Z,2.77
2022-08-29T22:06:27.787Z,2.10
2022-08-29T22:08:57.523Z,2.13
2022-08-29T22:11:37.178Z,2.50
2022-08-29T22:14:07.193Z,2.40
2022-08-29T22:16:35.637Z,2.20
2022-08-29T22:19:06.505Z,2.00
2022-08-29T22:21:36.617Z,2.40
2022-08-29T22:24:05.538Z,2.40
2022-08-29T22:26:34.705Z,2.47
2022-08-29T22:29:03.913Z,2.13
2022-08-29T22:31:32.848Z,2.10
2022-08-29T22:34:01.694Z,2.13
2022-08-29T22:36:35.645Z,2.30
2022-08-29T22:39:04.390Z,2.30
2022-08-29T22:41:33.058Z,2.10
2022-08-29T22:44:42.283Z,1.77
2022-08-29T22:46:52.763Z,1.67
2022-08-29T22:49:21.510Z,1.83
2022-08-29T22:51:51.436Z,1.90
2022-08-29T22:54:38.421Z,1.67
2022-08-29T22:57:08.321Z,1.93
2022-08-29T22:59:37.563Z,1.83
2022-08-29T23:02:06.409Z,2.00
2022-08-29T23:04:35.247Z,1.90
2022-08-29T23:07:05.809Z,1.93
2022-08-29T23:09:35.242Z,1.87
2022-08-29T23:12:05.362Z,1.80
2022-08-29T23:14:35.570Z,2.00
2022-08-29T23:17:04.357Z,2.10
2022-08-29T23:19:33.066Z,1.80
2022-08-29T23:22:02.307Z,2.00
2022-08-29T23:24:32.828Z,2.50
2022-08-29T23:27:01.796Z,2.10
2022-08-29T23:29:32.586Z,2.10
2022-08-29T23:32:01.783Z,2.10
2022-08-29T23:34:32.018Z,2.23
2022-08-29T23:37:01.068Z,1.97
2022-08-29T23:39:29.688Z,2.07
2022-08-29T23:41:59.664Z,1.97
2022-08-29T23:44:28.285Z,1.93
2022-08-29T23:46:57.030Z,2.00
2022-08-29T23:49:25.703Z,2.10
2022-08-29T23:51:54.300Z,1.90
2022-08-29T23:54:22.909Z,2.10
2022-08-29T23:56:51.537Z,2.30
2022-08-29T23:59:35.431Z,2.00
